Time;durP1;ratioP1;P1;durP2;ratioP2;P2;SDS_P1;SDS_P2;PMS_P1;PMS_P2;Temp;Humidity;BMP_temperature;BMP_pressure;BME280_temperature;BME280_humidity;BME280_pressure;Samples;Min_cycle;Max_cycle;Signal;HPM_P1;HPM_P2
2021/12/06 00:01:22;;;;;;;2.67;2.10;;;3.60;99.90;;;;;;4994046;28;20209;-69
2021/12/06 00:03:57;;;;;;;7.87;2.30;;;3.60;99.90;;;;;;4994219;28;20198;-69
2021/12/06 00:06:24;;;;;;;0.87;0.87;;;3.60;99.90;;;;;;4993599;28;20193;-69
2021/12/06 00:08:50;;;;;;;2.00;1.90;;;3.60;99.90;;;;;;4994044;28;20175;-69
2021/12/06 00:11:16;;;;;;;0.20;0.20;;;3.60;99.90;;;;;;4995098;28;20556;-69
2021/12/06 00:13:46;;;;;;;1.27;1.20;;;3.60;99.90;;;;;;4994490;28;20211;-69
2021/12/06 00:16:17;;;;;;;0.87;0.87;;;3.60;99.90;;;;;;4994022;28;20214;-69
2021/12/06 00:18:44;;;;;;;1.47;1.30;;;3.60;99.90;;;;;;4994094;28;20577;-69
2021/12/06 00:21:10;;;;;;;0.83;0.83;;;3.60;99.90;;;;;;4992966;28;20217;-69
2021/12/06 00:23:36;;;;;;;0.37;0.37;;;3.60;99.90;;;;;;4993689;28;20187;-69
2021/12/06 00:26:03;;;;;;;2.23;2.13;;;3.60;99.90;;;;;;4993606;28;20206;-69
2021/12/06 00:28:29;;;;;;;0.87;0.87;;;3.60;99.90;;;;;;4993780;28;20314;-69
2021/12/06 00:30:55;;;;;;;2.63;2.47;;;3.60;99.90;;;;;;4975518;28;20222;-69
2021/12/06 00:33:22;;;;;;;1.80;0.87;;;3.60;99.90;;;;;;4993838;28;20265;-70
2021/12/06 00:35:47;;;;;;;0.63;0.63;;;3.60;99.90;;;;;;5003927;28;20313;-70
2021/12/06 00:38:13;;;;;;;0.47;0.47;;;3.60;99.90;;;;;;5013245;28;20277;-70
2021/12/06 00:40:47;;;;;;;1.13;1.13;;;3.60;99.90;;;;;;4995408;28;20210;-70
2021/12/06 00:43:13;;;;;;;1.03;1.03;;;3.60;99.90;;;;;;5008793;28;20774;-70
2021/12/06 00:45:39;;;;;;;0.20;0.20;;;3.50;99.90;;;;;;4993594;28;20693;-70
2021/12/06 00:48:05;;;;;;;3.07;0.57;;;3.50;99.90;;;;;;4993437;28;20179;-70
2021/12/06 00:50:33;;;;;;;1.03;0.93;;;3.40;99.90;;;;;;4993939;28;20199;-69
2021/12/06 00:52:59;;;;;;;0.70;0.70;;;3.30;99.90;;;;;;4994033;28;20186;-70
2021/12/06 00:55:25;;;;;;;0.57;0.57;;;3.20;99.90;;;;;;4994509;28;20199;-69
2021/12/06 00:57:53;;;;;;;0.00;0.00;;;3.10;99.90;;;;;;5010884;28;20174;-70
2021/12/06 01:00:44;;;;;;;0.77;0.77;;;3.10;99.90;;;;;;5012708;28;20276;-69
2021/12/06 01:03:13;;;;;;;1.10;1.10;;;3.10;99.90;;;;;;5012877;28;20181;-70
2021/12/06 01:05:40;;;;;;;0.20;0.20;;;3.00;99.90;;;;;;5012582;28;20595;-70
2021/12/06 01:08:06;;;;;;;0.50;0.50;;;3.00;99.90;;;;;;4994479;28;20178;-70
2021/12/06 01:10:33;;;;;;;0.30;0.30;;;3.00;99.90;;;;;;5012876;28;20887;-70
2021/12/06 01:13:01;;;;;;;1.10;0.80;;;3.00;99.90;;;;;;5012630;28;20197;-70
2021/12/06 01:15:30;;;;;;;2.23;1.07;;;3.00;99.90;;;;;;5012523;28;20189;-69
2021/12/06 01:17:58;;;;;;;0.43;0.43;;;3.00;99.90;;;;;;5012517;28;20196;-69
2021/12/06 01:20:28;;;;;;;1.50;1.37;;;3.10;99.90;;;;;;5012208;28;20252;-70
2021/12/06 01:23:06;;;;;;;0.30;0.30;;;3.10;99.90;;;;;;5012209;28;20209;-69
2021/12/06 01:31:18;;;;;;;3.40;3.13;;;3.20;99.90;;;;;;5011733;28;20213;-70
2021/12/06 01:34:08;;;;;;;0.63;0.63;;;3.20;99.90;;;;;;5012020;28;20175;-69
2021/12/06 01:39:20;;;;;;;0.93;0.93;;;3.20;99.90;;;;;;5012173;28;20578;-69
2021/12/06 01:41:52;;;;;;;0.57;0.57;;;3.10;99.90;;;;;;5012005;28;20229;-69
2021/12/06 01:44:20;;;;;;;0.37;0.37;;;3.00;99.90;;;;;;4987086;28;20675;-70
2021/12/06 01:47:15;;;;;;;0.10;0.10;;;3.00;99.90;;;;;;4996997;28;20181;-69
2021/12/06 01:49:45;;;;;;;0.77;0.77;;;2.90;99.90;;;;;;4964607;28;20277;-70
2021/12/06 01:52:16;;;;;;;0.33;0.33;;;3.00;99.90;;;;;;4975081;28;20229;-69
2021/12/06 01:54:43;;;;;;;1.17;1.13;;;3.00;99.90;;;;;;4992429;28;20194;-70
2021/12/06 01:57:08;;;;;;;0.20;0.20;;;3.00;99.90;;;;;;4992019;28;20178;-70
2021/12/06 01:59:34;;;;;;;2.23;2.13;;;3.00;99.90;;;;;;4990475;28;20276;-70
2021/12/06 02:02:00;;;;;;;0.40;0.40;;;3.00;99.90;;;;;;4992289;28;20175;-70
2021/12/06 02:04:29;;;;;;;0.97;0.97;;;3.10;99.90;;;;;;5011125;28;20242;-70
2021/12/06 02:06:56;;;;;;;0.87;0.87;;;3.10;99.90;;;;;;5010909;28;20179;-70
2021/12/06 02:09:25;;;;;;;3.80;0.60;;;3.20;99.90;;;;;;5011462;28;20271;-69
2021/12/06 02:11:52;;;;;;;1.63;1.53;;;3.20;99.90;;;;;;5011706;28;20177;-69
2021/12/06 02:14:37;;;;;;;0.67;0.67;;;3.20;99.90;;;;;;5011439;28;20182;-70
2021/12/06 02:19:46;;;;;;;0.97;0.37;;;3.20;99.90;;;;;;5011477;28;20684;-69
2021/12/06 02:22:17;;;;;;;1.23;1.13;;;3.20;99.90;;;;;;5011599;28;20173;-69
2021/12/06 02:24:44;;;;;;;1.63;1.53;;;3.20;99.90;;;;;;5011361;28;20224;-69
2021/12/06 02:27:11;;;;;;;0.00;0.00;;;3.20;99.90;;;;;;5011314;28;20197;-70
2021/12/06 02:29:39;;;;;;;1.43;1.40;;;3.20;99.90;;;;;;5011051;28;20204;-69
2021/12/06 02:32:10;;;;;;;0.27;0.27;;;3.30;99.90;;;;;;5010916;28;20180;-70
2021/12/06 02:34:40;;;;;;;0.10;0.10;;;3.30;99.90;;;;;;5011170;28;20670;-70
2021/12/06 02:37:08;;;;;;;2.23;1.23;;;3.20;99.90;;;;;;4993462;28;20678;-69
2021/12/06 02:39:34;;;;;;;0.20;0.20;;;3.20;99.90;;;;;;5010927;28;20226;-69
2021/12/06 02:42:00;;;;;;;0.60;0.30;;;3.20;99.90;;;;;;5011384;28;20256;-69
2021/12/06 02:44:27;;;;;;;0.53;0.53;;;3.20;99.90;;;;;;4999275;28;20193;-70
2021/12/06 02:46:53;;;;;;;4.13;1.80;;;3.20;99.90;;;;;;5015098;28;20217;-70
2021/12/06 02:49:19;;;;;;;0.50;0.50;;;3.20;99.90;;;;;;5015173;28;20635;-70
2021/12/06 02:51:45;;;;;;;0.77;0.77;;;3.20;99.90;;;;;;5015282;28;20227;-70
2021/12/06 02:54:12;;;;;;;0.17;0.17;;;3.20;99.90;;;;;;5015092;28;20189;-69
2021/12/06 02:59:37;;;;;;;0.83;0.83;;;3.20;99.90;;;;;;4981026;28;20272;-69
2021/12/06 03:02:06;;;;;;;0.30;0.30;;;3.20;99.90;;;;;;4997480;28;20191;-70
2021/12/06 03:04:32;;;;;;;2.07;1.77;;;3.10;99.90;;;;;;4997331;28;20193;-70
2021/12/06 03:06:59;;;;;;;0.57;0.57;;;3.10;99.90;;;;;;5013987;28;20212;-70
2021/12/06 03:09:29;;;;;;;0.60;0.60;;;3.10;99.90;;;;;;5014471;28;20698;-70
2021/12/06 03:12:02;;;;;;;0.40;0.40;;;3.10;99.90;;;;;;5014930;28;20195;-70
2021/12/06 03:14:34;;;;;;;0.83;0.83;;;3.00;99.90;;;;;;4989141;28;20187;-70
2021/12/06 03:17:04;;;;;;;0.10;0.10;;;3.00;99.90;;;;;;4994951;28;20178;-69
2021/12/06 03:19:29;;;;;;;0.10;0.10;;;3.00;99.90;;;;;;4994815;28;20210;-70
2021/12/06 03:21:55;;;;;;;0.83;0.83;;;3.00;99.90;;;;;;4995040;28;20206;-70
2021/12/06 03:24:21;;;;;;;0.73;0.73;;;3.00;99.90;;;;;;4995149;28;20659;-69
2021/12/06 03:26:48;;;;;;;0.30;0.30;;;3.10;99.90;;;;;;4994482;28;20209;-70
2021/12/06 03:29:14;;;;;;;0.77;0.77;;;3.10;99.90;;;;;;4994700;28;20264;-70
2021/12/06 03:31:40;;;;;;;1.93;0.93;;;3.10;99.90;;;;;;4976879;28;20194;-70
2021/12/06 03:34:08;;;;;;;0.33;0.33;;;3.10;99.90;;;;;;4994996;28;20186;-69
2021/12/06 03:36:36;;;;;;;1.33;0.50;;;3.00;99.90;;;;;;5011139;28;20261;-70
2021/12/06 03:39:07;;;;;;;0.20;0.20;;;3.00;99.90;;;;;;5014520;28;20190;-69
2021/12/06 03:41:32;;;;;;;0.57;0.53;;;3.00;99.90;;;;;;5014172;28;20563;-69
2021/12/06 03:43:59;;;;;;;2.00;1.07;;;3.00;99.90;;;;;;5003541;28;20188;-70
2021/12/06 03:46:27;;;;;;;0.47;0.47;;;3.00;99.90;;;;;;4994334;28;20179;-69
2021/12/06 03:48:53;;;;;;;0.57;0.57;;;3.00;99.90;;;;;;4994381;28;20178;-70
2021/12/06 03:51:19;;;;;;;0.50;0.50;;;3.00;99.90;;;;;;4994757;28;20660;-70
2021/12/06 03:53:45;;;;;;;0.10;0.10;;;3.00;99.90;;;;;;4995000;28;20186;-70
2021/12/06 03:56:13;;;;;;;0.20;0.20;;;3.00;99.90;;;;;;4992809;28;20209;-70
2021/12/06 03:58:39;;;;;;;0.40;0.30;;;3.00;99.90;;;;;;4976997;28;20273;-69
2021/12/06 04:01:05;;;;;;;0.53;0.53;;;3.00;99.90;;;;;;4994116;28;20294;-70
2021/12/06 04:03:34;;;;;;;0.30;0.30;;;3.00;99.90;;;;;;4994435;28;20175;-69
2021/12/06 04:06:01;;;;;;;0.73;0.73;;;3.00;99.90;;;;;;4993659;28;20187;-69
2021/12/06 04:08:26;;;;;;;1.50;1.10;;;2.90;99.90;;;;;;4994106;28;20179;-69
2021/12/06 04:10:52;;;;;;;0.40;0.40;;;2.90;99.90;;;;;;4994107;28;20223;-69
2021/12/06 04:13:18;;;;;;;2.63;1.40;;;2.90;99.90;;;;;;4994376;28;20190;-70
2021/12/06 04:15:44;;;;;;;1.20;0.40;;;2.90;99.90;;;;;;4994112;28;20552;-69
2021/12/06 04:18:10;;;;;;;0.17;0.17;;;2.80;99.90;;;;;;4994147;28;20265;-70
2021/12/06 04:20:37;;;;;;;1.33;1.23;;;2.70;99.90;;;;;;4993705;28;20276;-69
2021/12/06 04:23:05;;;;;;;0.20;0.20;;;2.70;99.90;;;;;;4994818;28;20285;-69
2021/12/06 04:25:31;;;;;;;1.43;1.43;;;2.60;99.90;;;;;;4994227;28;20174;-69
2021/12/06 04:28:03;;;;;;;1.70;1.60;;;2.50;99.90;;;;;;4994045;28;20236;-70
2021/12/06 04:30:29;;;;;;;0.60;0.60;;;2.50;99.90;;;;;;4993098;28;20206;-69
2021/12/06 04:32:55;;;;;;;1.47;1.47;;;2.40;99.90;;;;;;4994459;28;20237;-69
2021/12/06 04:35:25;;;;;;;0.30;0.30;;;2.30;99.90;;;;;;5000651;28;20260;-70
2021/12/06 04:37:52;;;;;;;0.10;0.10;;;2.30;99.90;;;;;;5013295;28;20207;-70
2021/12/06 04:40:17;;;;;;;1.10;1.10;;;2.20;99.90;;;;;;5013502;28;20208;-69
2021/12/06 04:42:43;;;;;;;0.57;0.57;;;2.20;99.90;;;;;;5012844;28;20302;-69
2021/12/06 04:45:11;;;;;;;4.27;1.70;;;2.10;99.90;;;;;;4994226;28;20223;-70
2021/12/06 04:47:37;;;;;;;3.97;1.20;;;2.10;99.90;;;;;;4993926;28;20255;-70
2021/12/06 04:50:05;;;;;;;0.40;0.40;;;2.10;99.90;;;;;;4994111;28;20221;-70
2021/12/06 04:52:31;;;;;;;0.30;0.30;;;2.00;99.90;;;;;;4995870;28;20228;-69
2021/12/06 04:54:59;;;;;;;0.93;0.93;;;1.90;99.90;;;;;;4996279;28;20184;-69
2021/12/06 04:57:35;;;;;;;1.80;1.73;;;1.80;99.90;;;;;;4994486;28;20256;-70
2021/12/06 05:00:13;;;;;;;0.10;0.10;;;1.80;99.90;;;;;;4993153;28;20692;-69
2021/12/06 05:02:39;;;;;;;3.20;2.93;;;1.70;99.90;;;;;;4993344;28;20235;-70
2021/12/06 05:05:15;;;;;;;3.50;2.67;;;1.60;99.90;;;;;;4993429;28;20188;-70
2021/12/06 05:07:45;;;;;;;0.50;0.50;;;1.60;99.90;;;;;;4991663;28;20194;-70
2021/12/06 05:10:12;;;;;;;0.30;0.30;;;1.60;99.90;;;;;;4992764;28;20231;-69
2021/12/06 05:12:38;;;;;;;0.00;0.00;;;1.70;99.90;;;;;;4993147;28;20675;-70
2021/12/06 05:15:05;;;;;;;1.93;1.80;;;1.70;99.90;;;;;;4993196;28;20263;-70
2021/12/06 05:17:32;;;;;;;0.37;0.37;;;1.80;99.90;;;;;;4975322;28;20184;-69
2021/12/06 05:19:58;;;;;;;0.90;0.87;;;1.80;99.90;;;;;;4992766;28;20702;-69
2021/12/06 05:22:24;;;;;;;1.03;1.03;;;1.70;99.90;;;;;;4993086;28;20182;-70
2021/12/06 05:24:50;;;;;;;0.73;0.73;;;1.70;99.90;;;;;;4991391;28;20207;-69
2021/12/06 05:27:18;;;;;;;1.23;0.97;;;1.70;99.90;;;;;;4975142;28;20246;-69
2021/12/06 05:29:48;;;;;;;0.60;0.60;;;1.60;99.90;;;;;;4992773;28;20200;-70
2021/12/06 05:32:14;;;;;;;1.00;1.00;;;1.50;99.90;;;;;;4992606;28;20191;-70
2021/12/06 05:34:41;;;;;;;0.83;0.83;;;1.50;99.90;;;;;;4976547;28;20658;-70
2021/12/06 05:37:11;;;;;;;0.70;0.70;;;1.40;99.90;;;;;;5012275;28;20175;-69
2021/12/06 05:39:37;;;;;;;0.80;0.80;;;1.30;99.90;;;;;;5011935;28;20203;-69
2021/12/06 05:42:06;;;;;;;0.77;0.77;;;1.30;99.90;;;;;;4995054;28;20261;-70
2021/12/06 05:44:32;;;;;;;0.47;0.47;;;1.20;99.90;;;;;;4996957;28;20172;-69
2021/12/06 05:46:58;;;;;;;1.27;1.17;;;1.10;99.90;;;;;;4991999;28;20211;-69
2021/12/06 05:49:25;;;;;;;0.60;0.60;;;1.20;99.90;;;;;;4992315;28;20212;-69
2021/12/06 05:51:51;;;;;;;0.13;0.13;;;1.20;99.90;;;;;;4974931;28;20184;-70
2021/12/06 05:54:17;;;;;;;1.83;1.23;;;1.20;99.90;;;;;;4992466;28;20184;-70
2021/12/06 05:56:44;;;;;;;0.50;0.50;;;1.20;99.90;;;;;;4992055;28;20183;-69
2021/12/06 05:59:10;;;;;;;0.37;0.37;;;1.10;99.90;;;;;;4992256;28;20199;-69
2021/12/06 06:01:36;;;;;;;1.13;1.10;;;1.00;99.90;;;;;;4991898;28;20211;-69
2021/12/06 06:04:02;;;;;;;0.83;0.83;;;0.90;99.90;;;;;;4992577;28;20258;-70
2021/12/06 06:06:36;;;;;;;0.50;0.50;;;0.90;99.90;;;;;;4991400;28;20560;-69
2021/12/06 06:09:04;;;;;;;0.63;0.63;;;0.90;99.90;;;;;;4992031;28;20202;-70
2021/12/06 06:11:30;;;;;;;0.67;0.67;;;0.90;99.90;;;;;;5034097;23;20535;-72
2021/12/06 06:13:55;;;;;;;0.37;0.37;;;0.90;99.90;;;;;;5011240;28;20305;-72
2021/12/06 06:16:22;;;;;;;0.87;0.70;;;0.80;99.90;;;;;;5011198;28;20221;-72
2021/12/06 06:18:50;;;;;;;0.67;0.67;;;0.80;99.90;;;;;;4993176;28;20206;-71
2021/12/06 06:21:17;;;;;;;0.10;0.10;;;0.80;99.90;;;;;;4999188;28;20238;-72
2021/12/06 06:23:43;;;;;;;0.57;0.57;;;0.80;99.90;;;;;;4991929;28;20254;-72
2021/12/06 06:26:08;;;;;;;0.20;0.20;;;0.90;99.90;;;;;;4991592;28;20267;-72
2021/12/06 06:28:34;;;;;;;0.23;0.23;;;0.90;99.90;;;;;;4991764;28;20187;-72
2021/12/06 06:31:00;;;;;;;0.20;0.20;;;0.90;99.90;;;;;;4991292;28;20220;-72
2021/12/06 06:33:25;;;;;;;0.10;0.10;;;0.90;99.90;;;;;;4991860;28;20274;-72
2021/12/06 06:35:51;;;;;;;1.43;1.33;;;1.00;99.90;;;;;;5002395;28;20184;-71
2021/12/06 06:38:17;;;;;;;1.90;1.77;;;1.10;99.90;;;;;;4993688;28;20179;-72
2021/12/06 06:40:44;;;;;;;0.67;0.67;;;1.10;99.90;;;;;;5011693;28;20239;-72
2021/12/06 06:43:10;;;;;;;0.53;0.53;;;1.10;99.90;;;;;;4998371;28;20231;-72
2021/12/06 06:45:35;;;;;;;1.13;1.03;;;1.10;99.90;;;;;;4991661;28;20222;-72
2021/12/06 06:48:02;;;;;;;1.83;1.73;;;1.20;99.90;;;;;;4991581;28;20218;-71
2021/12/06 06:50:28;;;;;;;0.30;0.30;;;1.20;99.90;;;;;;4991824;28;20200;-72
2021/12/06 06:52:54;;;;;;;0.40;0.40;;;1.20;99.90;;;;;;4991771;28;20206;-71
2021/12/06 06:55:20;;;;;;;3.73;1.00;;;1.10;99.90;;;;;;4991442;28;20664;-72
2021/12/06 06:57:46;;;;;;;1.23;1.13;;;1.00;99.90;;;;;;4991206;28;20179;-72
2021/12/06 07:00:16;;;;;;;0.17;0.17;;;1.00;99.90;;;;;;4991641;28;20203;-72
2021/12/06 07:02:42;;;;;;;3.90;2.30;;;1.00;99.90;;;;;;4991897;28;20541;-72
2021/12/06 07:05:10;;;;;;;0.87;0.87;;;1.00;99.90;;;;;;4991779;28;20555;-72
2021/12/06 07:07:36;;;;;;;1.20;1.20;;;1.10;99.90;;;;;;4990617;28;20553;-72
2021/12/06 07:10:04;;;;;;;2.33;2.13;;;1.10;99.90;;;;;;4991381;28;20262;-71
2021/12/06 07:12:30;;;;;;;0.77;0.77;;;1.20;99.90;;;;;;4973760;28;20230;-72
2021/12/06 07:14:56;;;;;;;2.87;2.20;;;1.20;99.90;;;;;;4991449;28;20210;-72
2021/12/06 07:17:22;;;;;;;0.10;0.10;;;1.20;99.90;;;;;;4991284;28;20194;-72
2021/12/06 07:19:47;;;;;;;0.23;0.23;;;1.20;99.90;;;;;;4991979;28;20187;-72
2021/12/06 07:22:13;;;;;;;2.60;2.47;;;1.20;99.90;;;;;;4974033;28;20569;-73
2021/12/06 07:24:40;;;;;;;0.40;0.40;;;1.20;99.90;;;;;;4991351;28;20230;-72
2021/12/06 07:27:06;;;;;;;2.80;1.50;;;1.30;99.90;;;;;;4990963;28;20607;-72
2021/12/06 07:29:33;;;;;;;0.77;0.77;;;1.40;99.90;;;;;;4991767;28;20191;-73
2021/12/06 07:32:01;;;;;;;1.70;1.67;;;1.50;99.90;;;;;;4976073;28;20677;-72
2021/12/06 07:34:26;;;;;;;1.97;1.87;;;1.60;99.90;;;;;;4995074;28;20591;-72
2021/12/06 07:36:52;;;;;;;0.80;0.80;;;1.60;99.90;;;;;;5013372;28;20195;-72
2021/12/06 07:39:18;;;;;;;2.30;2.20;;;1.60;99.90;;;;;;5014600;28;20186;-72
2021/12/06 07:41:43;;;;;;;1.20;1.20;;;1.60;99.90;;;;;;4996527;28;20219;-72
2021/12/06 07:44:09;;;;;;;0.10;0.10;;;1.60;99.90;;;;;;5002541;28;20188;-72
2021/12/06 07:46:35;;;;;;;1.67;1.67;;;1.60;99.90;;;;;;4977049;28;20230;-73
2021/12/06 07:49:01;;;;;;;1.43;1.33;;;1.60;99.90;;;;;;4976817;28;20180;-72
2021/12/06 07:51:28;;;;;;;1.20;1.10;;;1.70;99.90;;;;;;4994537;28;20202;-72
2021/12/06 07:53:54;;;;;;;7.50;3.37;;;1.80;99.90;;;;;;4977195;28;20688;-72
2021/12/06 07:56:20;;;;;;;1.73;1.63;;;1.70;99.90;;;;;;4994632;28;20553;-72
2021/12/06 07:58:47;;;;;;;0.83;0.83;;;1.70;99.90;;;;;;4994557;28;20184;-74
2021/12/06 08:01:14;;;;;;;0.40;0.40;;;1.70;99.90;;;;;;4994867;28;20565;-72
2021/12/06 08:03:41;;;;;;;0.10;0.10;;;1.70;99.90;;;;;;4994392;28;20183;-72
2021/12/06 08:06:08;;;;;;;3.03;2.73;;;1.60;99.90;;;;;;4976093;28;20619;-73
2021/12/06 08:08:37;;;;;;;4.13;2.07;;;1.60;99.90;;;;;;4994619;28;20266;-72
2021/12/06 08:11:08;;;;;;;2.87;2.67;;;1.50;99.90;;;;;;4994711;28;20581;-73
2021/12/06 08:13:35;;;;;;;1.90;1.80;;;1.60;99.90;;;;;;4994759;28;20183;-72
2021/12/06 08:16:09;;;;;;;1.73;0.63;;;1.60;99.90;;;;;;4994144;28;20545;-71
2021/12/06 08:18:36;;;;;;;2.40;2.30;;;1.60;99.90;;;;;;4994040;28;20271;-72
2021/12/06 08:21:03;;;;;;;1.23;0.90;;;1.70;99.90;;;;;;4998139;28;20637;-72
2021/12/06 08:23:29;;;;;;;7.90;5.17;;;1.70;99.90;;;;;;5011709;28;20229;-71
2021/12/06 08:25:55;;;;;;;1.27;1.23;;;1.80;99.90;;;;;;5013527;28;20229;-71
2021/12/06 08:28:23;;;;;;;0.77;0.73;;;1.80;99.90;;;;;;5013710;28;20190;-71
2021/12/06 08:30:50;;;;;;;2.27;2.07;;;1.90;99.90;;;;;;5013186;28;20199;-72
2021/12/06 08:33:16;;;;;;;1.10;1.10;;;1.90;99.90;;;;;;5013807;28;20175;-72
2021/12/06 08:35:45;;;;;;;0.17;0.17;;;2.00;99.90;;;;;;4995995;28;20669;-72
2021/12/06 08:38:13;;;;;;;0.87;0.87;;;2.00;99.90;;;;;;5013602;28;20228;-72
2021/12/06 08:40:41;;;;;;;3.07;2.93;;;2.00;99.90;;;;;;5013472;28;20208;-72
2021/12/06 08:43:07;;;;;;;1.90;1.77;;;2.00;99.90;;;;;;5008781;28;20242;-72
2021/12/06 08:45:34;;;;;;;2.43;2.23;;;2.10;99.90;;;;;;4993674;28;20524;-72
2021/12/06 08:47:59;;;;;;;1.93;1.83;;;2.10;99.90;;;;;;4993136;28;20175;-72
2021/12/06 08:50:27;;;;;;;2.27;2.07;;;2.10;99.90;;;;;;4993430;28;20282;-72
2021/12/06 08:52:54;;;;;;;4.73;3.03;;;2.10;99.90;;;;;;4992241;28;20210;-72
2021/12/06 08:55:21;;;;;;;2.00;1.90;;;2.20;99.90;;;;;;4993234;28;20653;-71
2021/12/06 08:57:47;;;;;;;4.27;3.03;;;2.30;99.90;;;;;;4993007;28;20185;-72
2021/12/06 09:00:18;;;;;;;2.00;1.43;;;2.30;99.90;;;;;;4993205;28;20214;-72
2021/12/06 09:02:44;;;;;;;3.40;3.20;;;2.50;99.90;;;;;;4993355;28;20617;-72
2021/12/06 09:05:09;;;;;;;2.90;2.70;;;2.60;99.90;;;;;;4993307;28;20272;-72
2021/12/06 09:07:36;;;;;;;3.67;1.97;;;2.60;99.90;;;;;;4974836;28;20186;-72
2021/12/06 09:10:05;;;;;;;4.47;4.03;;;2.70;99.90;;;;;;4993084;28;20185;-72
2021/12/06 09:12:32;;;;;;;4.83;3.83;;;2.70;99.90;;;;;;4993074;28;20197;-72
2021/12/06 09:15:02;;;;;;;2.03;1.77;;;2.70;99.90;;;;;;4993107;28;20188;-72
2021/12/06 09:17:28;;;;;;;4.10;3.70;;;2.70;99.90;;;;;;4992662;28;20749;-72
2021/12/06 09:19:54;;;;;;;3.83;3.50;;;2.70;99.90;;;;;;4992890;28;20185;-71
2021/12/06 09:22:20;;;;;;;5.17;4.87;;;2.70;99.90;;;;;;4993452;28;20174;-72
2021/12/06 09:24:47;;;;;;;1.80;1.73;;;2.80;99.90;;;;;;4992875;28;20250;-72
2021/12/06 09:27:13;;;;;;;5.80;5.30;;;2.70;99.90;;;;;;4992743;28;20185;-72
2021/12/06 09:29:40;;;;;;;9.67;3.77;;;2.60;99.90;;;;;;4992852;28;20174;-72
2021/12/06 09:32:08;;;;;;;3.37;3.17;;;2.50;99.90;;;;;;4992445;28;20200;-72
2021/12/06 09:34:37;;;;;;;3.73;3.47;;;2.50;99.90;;;;;;4992626;28;20181;-72
2021/12/06 09:37:03;;;;;;;3.80;3.50;;;2.50;99.90;;;;;;5011983;28;20312;-72
2021/12/06 09:39:29;;;;;;;1.97;1.77;;;2.50;99.90;;;;;;5011994;28;20687;-72
2021/12/06 09:41:55;;;;;;;2.47;2.00;;;2.50;99.90;;;;;;5012018;28;20623;-72
2021/12/06 09:44:20;;;;;;;3.37;3.17;;;2.60;99.90;;;;;;4986279;28;20181;-72
2021/12/06 09:46:47;;;;;;;2.70;2.47;;;2.60;99.90;;;;;;4991996;28;20277;-72
2021/12/06 09:49:19;;;;;;;1.63;1.57;;;2.70;99.90;;;;;;4992662;28;20210;-72
2021/12/06 09:51:53;;;;;;;3.53;3.27;;;2.70;99.90;;;;;;4992541;28;20231;-72
2021/12/06 09:54:25;;;;;;;0.87;0.87;;;2.80;99.90;;;;;;4992128;28;20704;-72
2021/12/06 09:56:51;;;;;;;3.83;3.63;;;2.90;99.90;;;;;;4992202;28;20188;-72
2021/12/06 09:59:20;;;;;;;1.93;1.83;;;2.90;99.90;;;;;;4991970;28;20183;-72
2021/12/06 10:01:50;;;;;;;4.60;4.23;;;3.00;99.90;;;;;;4991965;28;20217;-72
2021/12/06 10:04:17;;;;;;;6.03;4.17;;;3.00;99.90;;;;;;4992281;28;20192;-72
2021/12/06 10:06:44;;;;;;;3.57;3.37;;;3.10;99.90;;;;;;4973714;28;20185;-72
2021/12/06 10:09:11;;;;;;;4.13;3.93;;;3.10;99.90;;;;;;4992015;28;20261;-72
2021/12/06 10:11:37;;;;;;;2.53;2.43;;;3.30;99.90;;;;;;4991963;28;20252;-72
2021/12/06 10:14:04;;;;;;;9.50;4.30;;;3.50;99.90;;;;;;4974435;28;20189;-72
2021/12/06 10:16:29;;;;;;;1.90;1.80;;;3.50;99.90;;;;;;4974291;28;20685;-72
2021/12/06 10:18:55;;;;;;;9.17;4.03;;;3.60;99.90;;;;;;4991845;28;20177;-72
2021/12/06 10:21:24;;;;;;;5.00;4.73;;;4.10;99.90;;;;;;4991897;28;20215;-72
2021/12/06 10:23:50;;;;;;;7.27;4.87;;;4.20;99.90;;;;;;4991881;28;20721;-72
2021/12/06 10:26:17;;;;;;;4.57;4.17;;;4.30;99.90;;;;;;4991635;28;20178;-72
2021/12/06 10:28:43;;;;;;;8.13;5.33;;;4.40;99.90;;;;;;4991980;28;20182;-72
2021/12/06 10:31:11;;;;;;;4.70;4.27;;;4.50;99.90;;;;;;4991457;28;20603;-71
2021/12/06 10:33:42;;;;;;;4.50;4.20;;;4.60;99.90;;;;;;4991884;28;20655;-71
2021/12/06 10:36:13;;;;;;;2.33;2.23;;;4.60;99.90;;;;;;5004484;28;20325;-72
2021/12/06 10:38:43;;;;;;;5.37;3.33;;;4.80;99.90;;;;;;5004205;28;20215;-71
2021/12/06 10:41:18;;;;;;;6.47;5.67;;;4.90;99.90;;;;;;4991489;28;20221;-71
2021/12/06 10:44:11;;;;;;;2.10;2.00;;;5.10;99.90;;;;;;5000656;28;20181;-71
2021/12/06 10:46:51;;;;;;;3.33;3.07;;;5.40;99.90;;;;;;4988359;28;20542;-71
2021/12/06 10:49:20;;;;;;;2.53;2.37;;;5.60;99.90;;;;;;4991362;28;20329;-71
2021/12/06 10:51:45;;;;;;;4.90;4.40;;;5.90;99.90;;;;;;4991671;28;20600;-71
2021/12/06 10:54:33;;;;;;;4.83;3.60;;;6.20;99.90;;;;;;4991702;28;20175;-72
2021/12/06 10:57:02;;;;;;;4.50;3.90;;;6.20;99.90;;;;;;4991496;28;20175;-71
2021/12/06 10:59:31;;;;;;;12.33;4.23;;;6.40;99.90;;;;;;4991302;28;20182;-71
2021/12/06 11:02:03;;;;;;;4.00;3.10;;;6.80;99.90;;;;;;4991730;28;20217;-72
2021/12/06 11:04:30;;;;;;;10.57;5.40;;;7.00;99.90;;;;;;4991536;28;20183;-72
2021/12/06 11:07:05;;;;;;;3.03;2.80;;;6.70;99.90;;;;;;4993464;28;20269;-71
2021/12/06 11:09:32;;;;;;;10.30;4.40;;;6.60;99.90;;;;;;4995254;28;20551;-72
2021/12/06 11:12:02;;;;;;;3.97;3.50;;;6.80;99.90;;;;;;4995289;28;20365;-71
2021/12/06 11:14:38;;;;;;;3.47;2.87;;;7.30;99.90;;;;;;4995650;28;20183;-72
2021/12/06 11:17:13;;;;;;;4.27;3.70;;;7.70;99.90;;;;;;4977642;28;20317;-71
2021/12/06 11:19:39;;;;;;;2.20;2.10;;;7.90;99.90;;;;;;4995296;28;20229;-72
2021/12/06 11:22:11;;;;;;;2.50;1.63;;;8.00;99.90;;;;;;4995443;28;20219;-71
2021/12/06 11:24:43;;;;;;;4.10;3.70;;;8.60;99.90;;;;;;4995154;28;20183;-73
2021/12/06 11:27:12;;;;;;;7.53;4.90;;;8.90;99.90;;;;;;4995609;28;20651;-72
2021/12/06 11:29:41;;;;;;;1.27;1.27;;;8.40;99.90;;;;;;4995045;28;20197;-71
2021/12/06 11:32:14;;;;;;;1.70;1.60;;;7.40;99.90;;;;;;4994750;28;20624;-72
2021/12/06 11:35:06;;;;;;;5.97;3.07;;;6.50;99.90;;;;;;4995749;28;20171;-71
2021/12/06 11:37:40;;;;;;;4.70;2.73;;;6.10;99.90;;;;;;5014238;28;20170;-72
2021/12/06 11:40:21;;;;;;;2.30;1.90;;;5.90;99.90;;;;;;4996493;28;20345;-72
2021/12/06 11:42:51;;;;;;;2.67;2.37;;;5.80;99.90;;;;;;5013100;28;20182;-72
2021/12/06 11:45:35;;;;;;;3.20;1.80;;;5.70;99.90;;;;;;4994718;28;20175;-72
2021/12/06 11:48:07;;;;;;;2.17;1.57;;;5.70;99.90;;;;;;4994517;28;20182;-72
2021/12/06 11:50:37;;;;;;;2.53;2.43;;;5.70;99.90;;;;;;4994544;28;20198;-71
2021/12/06 11:53:08;;;;;;;2.63;2.43;;;5.70;99.90;;;;;;4994686;28;20198;-71
2021/12/06 11:55:35;;;;;;;1.10;1.10;;;5.70;99.90;;;;;;4994809;28;20190;-72
2021/12/06 11:58:03;;;;;;;0.53;0.53;;;5.70;99.90;;;;;;4994670;28;20245;-72
2021/12/06 12:00:30;;;;;;;0.73;0.73;;;6.00;99.90;;;;;;4994410;28;20636;-72
2021/12/06 12:02:59;;;;;;;1.90;1.70;;;6.50;99.90;;;;;;4994896;28;20254;-72
2021/12/06 12:05:35;;;;;;;0.33;0.33;;;7.00;99.90;;;;;;4994718;28;20209;-72
2021/12/06 12:08:16;;;;;;;3.73;3.40;;;8.70;99.90;;;;;;4976197;28;20179;-72
2021/12/06 12:10:54;;;;;;;2.23;1.73;;;10.30;99.90;;;;;;4994202;28;20565;-72
2021/12/06 12:13:29;;;;;;;3.57;0.60;;;11.50;99.90;;;;;;4995891;28;20190;-72
2021/12/06 12:15:59;;;;;;;4.23;1.43;;;11.20;99.90;;;;;;4994152;28;20715;-72
2021/12/06 12:18:25;;;;;;;3.00;1.17;;;11.80;99.90;;;;;;4994132;28;20187;-72
2021/12/06 12:20:53;;;;;;;3.80;1.83;;;12.70;99.90;;;;;;4976632;28;20230;-72
2021/12/06 12:23:19;;;;;;;7.27;3.37;;;12.00;99.90;;;;;;4993801;28;20183;-72
2021/12/06 12:25:58;;;;;;;1.33;1.23;;;10.60;99.90;;;;;;4994002;28;20190;-70
2021/12/06 12:28:29;;;;;;;6.83;4.47;;;9.70;99.90;;;;;;4994452;28;20190;-72
2021/12/06 12:30:59;;;;;;;0.83;0.77;;;9.70;99.90;;;;;;4993487;28;20226;-72
2021/12/06 12:33:26;;;;;;;4.10;1.93;;;9.00;99.90;;;;;;4994295;28;20683;-72
2021/12/06 12:35:57;;;;;;;0.63;0.63;;;8.60;99.90;;;;;;5004720;28;20182;-71
2021/12/06 12:38:28;;;;;;;0.40;0.40;;;8.40;99.90;;;;;;5013558;28;20182;-72
2021/12/06 12:41:00;;;;;;;0.20;0.20;;;8.80;99.90;;;;;;5013690;28;20673;-73
2021/12/06 12:43:34;;;;;;;0.47;0.30;;;10.60;99.90;;;;;;5007099;28;20306;-73
2021/12/06 12:46:05;;;;;;;0.80;0.80;;;11.90;99.90;;;;;;4976120;28;20182;-72
2021/12/06 12:48:48;;;;;;;1.60;0.90;;;12.50;99.90;;;;;;4975941;28;20183;-73
2021/12/06 12:51:18;;;;;;;0.10;0.10;;;13.10;99.90;;;;;;4993342;28;20196;-73
2021/12/06 12:53:59;;;;;;;0.10;0.10;;;13.90;99.90;;;;;;4993335;28;20675;-72
2021/12/06 12:56:28;;;;;;;1.07;0.97;;;15.10;99.90;;;;;;4993251;28;20229;-73
2021/12/06 12:58:54;;;;;;;0.60;0.60;;;16.40;99.90;;;;;;4993729;28;20171;-71
2021/12/06 13:01:23;;;;;;;3.63;2.63;;;14.70;99.90;;;;;;4976174;28;20237;-73
2021/12/06 13:04:00;;;;;;;1.43;1.07;;;14.60;99.90;;;;;;4993095;28;20175;-73
2021/12/06 13:06:32;;;;;;;1.43;1.33;;;15.40;99.90;;;;;;4975819;28;20325;-73
2021/12/06 13:09:01;;;;;;;3.03;2.37;;;15.80;99.90;;;;;;4994227;28;20242;-70
2021/12/06 13:11:55;;;;;;;5.03;3.63;;;15.30;99.90;;;;;;4994221;28;20600;-70
2021/12/06 13:14:25;;;;;;;2.03;1.93;;;13.80;99.90;;;;;;4993092;28;20190;-70
2021/12/06 13:17:00;;;;;;;3.50;2.90;;;13.40;99.90;;;;;;4992795;28;20191;-71